createdAt,value
2022-08-29T00:00:17.649Z,17.25
2022-08-29T00:02:47.789Z,14.07
2022-08-29T00:05:18.364Z,16.80
2022-08-29T00:07:46.861Z,18.00
2022-08-29T00:10:15.972Z,13.65
2022-08-29T00:12:45.184Z,14.40
2022-08-29T00:15:15.353Z,14.93
2022-08-29T00:17:44.267Z,15.57
2022-08-29T00:20:17.235Z,17.45
2022-08-29T00:22:45.692Z,14.40
2022-08-29T00:25:15.200Z,16.15
2022-08-29T00:27:44.575Z,13.65
2022-08-29T00:30:19.835Z,15.27
2022-08-29T00:32:47.989Z,12.82
2022-08-29T00:35:22.999Z,15.25
2022-08-29T00:37:52.270Z,12.35
2022-08-29T00:40:24.287Z,13.52
2022-08-29T00:42:52.685Z,17.77
2022-08-29T00:45:20.887Z,13.55
2022-08-29T00:47:53.856Z,14.82
2022-08-29T00:50:28.706Z,11.27
2022-08-29T00:52:58.447Z,17.45
2022-08-29T00:55:30.231Z,14.52
2022-08-29T00:58:01.222Z,14.70
2022-08-29T01:00:29.643Z,15.57
2022-08-29T01:02:58.198Z,12.75
2022-08-29T01:05:28.152Z,16.83
2022-08-29T01:07:56.490Z,16.02
2022-08-29T01:10:42.813Z,15.27
2022-08-29T01:13:12.927Z,14.60
2022-08-29T01:15:44.103Z,14.70
2022-08-29T01:18:16.729Z,14.75
2022-08-29T01:20:58.448Z,16.60
2022-08-29T01:23:34.333Z,14.57
2022-08-29T01:26:06.827Z,12.52
2022-08-29T01:28:39.626Z,13.77
2022-08-29T01:31:10.660Z,12.55
2022-08-29T01:33:43.396Z,14.32
2022-08-29T01:36:15.628Z,18.98
2022-08-29T01:38:44.271Z,12.88
2022-08-29T01:41:14.737Z,16.30
2022-08-29T01:43:48.832Z,16.42
2022-08-29T01:46:19.481Z,13.38
2022-08-29T01:48:48.544Z,11.98
2022-08-29T01:51:18.008Z,15.95
2022-08-29T01:53:46.318Z,17.08
2022-08-29T01:56:19.062Z,17.38
2022-08-29T01:58:48.952Z,17.52
2022-08-29T02:01:20.456Z,14.80
2022-08-29T02:03:50.399Z,13.50
2022-08-29T02:06:18.839Z,15.23
2022-08-29T02:08:47.071Z,12.05
2022-08-29T02:11:17.969Z,15.45
2022-08-29T02:13:48.564Z,14.27
2022-08-29T02:16:18.333Z,12.52
2022-08-29T02:18:47.136Z,14.25
2022-08-29T02:21:18.663Z,13.23
2022-08-29T02:23:50.076Z,19.95
2022-08-29T02:26:21.977Z,15.23
2022-08-29T02:28:51.777Z,20.25
2022-08-29T02:31:21.624Z,12.73
2022-08-29T02:33:49.823Z,20.08
2022-08-29T02:36:17.996Z,15.20
2022-08-29T02:38:48.404Z,16.08
2022-08-29T02:41:16.813Z,14.68
2022-08-29T02:43:46.266Z,16.00
2022-08-29T02:46:17.352Z,18.98
2022-08-29T02:48:47.655Z,18.40
2022-08-29T02:51:31.605Z,20.40
2022-08-29T02:54:00.791Z,23.08
2022-08-29T02:56:29.291Z,21.08
2022-08-29T02:58:59.414Z,18.85
2022-08-29T03:01:28.663Z,15.75
2022-08-29T03:03:56.776Z,21.52
2022-08-29T03:06:25.445Z,17.67
2022-08-29T03:08:54.258Z,17.75
2022-08-29T03:11:24.161Z,17.08
2022-08-29T03:13:52.616Z,18.23
2022-08-29T03:16:27.888Z,18.50
2022-08-29T03:18:56.571Z,24.63
2022-08-29T03:21:27.307Z,20.23
2022-08-29T03:23:57.023Z,16.45
2022-08-29T03:26:25.932Z,22.88
2022-08-29T03:28:54.297Z,19.50
2022-08-29T03:31:22.876Z,23.35
2022-08-29T03:33:52.523Z,18.38
2022-08-29T03:36:20.913Z,16.75
2022-08-29T03:38:49.489Z,19.42
2022-08-29T03:41:22.391Z,20.75
2022-08-29T03:43:50.593Z,15.98
2022-08-29T03:46:18.962Z,20.52
2022-08-29T03:48:47.127Z,20.70
2022-08-29T03:51:16.774Z,17.42
2022-08-29T03:53:45.340Z,18.95
2022-08-29T03:56:18.345Z,19.67
2022-08-29T03:58:52.554Z,20.40
2022-08-29T04:01:22.829Z,25.35
2022-08-29T04:03:51.629Z,19.65
2022-08-29T04:06:22.506Z,24.75
2022-08-29T04:08:51.736Z,35.63
2022-08-29T04:11:22.587Z,49.47
2022-08-29T04:13:51.446Z,37.72
2022-08-29T04:16:23.108Z,49.90
2022-08-29T04:18:51.506Z,35.65
2022-08-29T04:21:21.123Z,33.95
2022-08-29T04:23:53.442Z,29.48
2022-08-29T04:26:37.743Z,25.20
2022-08-29T04:29:06.729Z,31.60
2022-08-29T04:31:36.704Z,25.20
2022-08-29T04:34:06.206Z,33.13
2022-08-29T04:36:37.142Z,24.55
2022-08-29T04:39:06.614Z,20.45
2022-08-29T04:41:35.422Z,34.97
2022-08-29T04:44:03.756Z,22.58
2022-08-29T04:46:32.906Z,21.83
2022-08-29T04:49:04.304Z,22.92
2022-08-29T04:51:34.481Z,18.00
2022-08-29T04:54:05.314Z,22.90
2022-08-29T04:56:34.847Z,21.75
2022-08-29T04:59:03.054Z,23.67
2022-08-29T05:01:31.869Z,24.00
2022-08-29T05:04:00.103Z,24.85
2022-08-29T05:06:28.725Z,22.40
2022-08-29T05:08:59.337Z,31.17
2022-08-29T05:11:30.884Z,21.73
2022-08-29T05:14:00.680Z,27.85
2022-08-29T05:16:30.492Z,28.35
2022-08-29T05:19:00.061Z,30.30
2022-08-29T05:21:34.149Z,21.98
2022-08-29T05:24:06.083Z,19.85
2022-08-29T05:26:39.090Z,24.30
2022-08-29T05:29:09.653Z,27.80
2022-08-29T05:31:38.273Z,23.42
2022-08-29T05:34:29.928Z,24.75
2022-08-29T05:36:55.188Z,24.55
2022-08-29T05:39:23.530Z,22.70
2022-08-29T05:41:56.479Z,16.27
2022-08-29T05:44:24.913Z,22.42
2022-08-29T05:46:53.040Z,20.67
2022-08-29T05:49:21.524Z,19.70
2022-08-29T05:51:53.347Z,20.65
2022-08-29T05:54:21.903Z,18.75
2022-08-29T05:56:51.293Z,18.05
2022-08-29T05:59:21.302Z,14.57
2022-08-29T06:01:49.470Z,16.60
2022-08-29T06:04:17.573Z,16.23
2022-08-29T06:06:45.940Z,19.17
2022-08-29T06:09:15.086Z,13.32
2022-08-29T06:11:47.156Z,14.23
2022-08-29T06:14:15.917Z,12.20
2022-08-29T06:16:45.606Z,17.33
2022-08-29T06:19:13.805Z,18.80
2022-08-29T06:21:42.076Z,12.80
2022-08-29T06:24:10.493Z,16.75
2022-08-29T06:26:38.725Z,11.40
2022-08-29T06:29:09.790Z,19.30
2022-08-29T06:31:38.753Z,16.88
2022-08-29T06:34:10.178Z,18.13
2022-08-29T06:36:38.804Z,16.95
2022-08-29T06:39:09.954Z,20.17
2022-08-29T06:41:40.766Z,15.23
2022-08-29T06:44:10.547Z,16.02
2022-08-29T06:46:41.770Z,13.52
2022-08-29T06:49:14.667Z,13.95
2022-08-29T06:51:46.862Z,15.85
2022-08-29T06:54:15.465Z,15.20
2022-08-29T06:56:44.228Z,17.75
2022-08-29T06:59:13.192Z,18.83
2022-08-29T07:01:42.935Z,11.60
2022-08-29T07:04:14.598Z,16.88
2022-08-29T07:06:44.173Z,15.45
2022-08-29T07:09:13.166Z,19.60
2022-08-29T07:11:43.342Z,14.10
2022-08-29T07:14:13.535Z,15.88
2022-08-29T07:16:45.116Z,13.20
2022-08-29T07:19:14.923Z,17.42
2022-08-29T07:21:44.074Z,13.93
2022-08-29T07:24:12.400Z,16.38
2022-08-29T07:26:44.292Z,13.10
2022-08-29T07:29:15.997Z,15.02
2022-08-29T07:31:44.293Z,15.57
2022-08-29T07:34:14.673Z,20.15
2022-08-29T07:36:43.063Z,15.73
2022-08-29T07:39:13.360Z,21.83
2022-08-29T07:41:43.673Z,14.98
2022-08-29T07:44:15.910Z,13.93
2022-08-29T07:46:47.541Z,14.13
2022-08-29T07:49:17.329Z,14.00
2022-08-29T07:51:45.540Z,13.07
2022-08-29T07:54:16.904Z,13.13
2022-08-29T07:56:46.043Z,14.30
2022-08-29T07:59:14.541Z,16.70
2022-08-29T08:01:42.715Z,13.38
2022-08-29T08:04:11.661Z,16.10
2022-08-29T08:06:43.611Z,14.23
2022-08-29T08:09:14.149Z,9.05
2022-08-29T08:11:43.788Z,10.50
2022-08-29T08:14:12.695Z,10.15
2022-08-29T08:16:44.319Z,24.92
2022-08-29T08:19:14.300Z,13.57
2022-08-29T08:21:49.593Z,12.63
2022-08-29T08:24:19.752Z,16.17
2022-08-29T08:26:49.670Z,15.20
2022-08-29T08:29:18.519Z,71.60
2022-08-29T08:31:50.056Z,22.23
2022-08-29T08:34:19.024Z,15.05
2022-08-29T08:36:48.697Z,18.10
2022-08-29T08:39:17.163Z,16.20
2022-08-29T08:41:58.544Z,17.70
2022-08-29T08:45:05.722Z,15.55
2022-08-29T08:47:40.174Z,15.60
2022-08-29T08:50:17.650Z,12.85
2022-08-29T08:52:55.163Z,11.68
2022-08-29T08:55:30.747Z,13.13
2022-08-29T08:58:08.004Z,13.77
2022-08-29T09:00:43.655Z,10.55
2022-08-29T09:03:26.566Z,14.90
2022-08-29T09:06:10.841Z,12.75
2022-08-29T09:08:52.363Z,16.08
2022-08-29T09:11:28.225Z,13.73
2022-08-29T09:14:10.917Z,16.52
2022-08-29T09:16:45.091Z,10.43
2022-08-29T09:19:17.269Z,15.80
2022-08-29T09:21:49.815Z,10.75
2022-08-29T09:24:27.111Z,14.63
2022-08-29T09:26:56.410Z,13.75
2022-08-29T09:29:28.622Z,14.68
2022-08-29T09:32:10.368Z,14.27
2022-08-29T09:35:06.911Z,12.93
2022-08-29T09:37:36.288Z,8.93
2022-08-29T09:40:10.828Z,13.68
2022-08-29T09:42:42.859Z,12.52
2022-08-29T09:45:30.711Z,12.18
2022-08-29T09:48:12.291Z,10.77
2022-08-29T09:50:40.462Z,11.65
2022-08-29T09:53:11.673Z,14.85
2022-08-29T09:55:54.944Z,11.18
2022-08-29T09:58:34.262Z,11.48
2022-08-29T10:01:09.862Z,15.13
2022-08-29T10:03:44.462Z,17.45
2022-08-29T10:06:16.569Z,16.55
2022-08-29T10:08:57.758Z,14.13
2022-08-29T10:11:33.099Z,14.27
2022-08-29T10:14:05.572Z,11.75
2022-08-29T10:16:50.492Z,15.50
2022-08-29T10:19:22.550Z,19.65
2022-08-29T10:22:00.716Z,18.92
2022-08-29T10:24:55.222Z,15.48
2022-08-29T10:27:33.826Z,14.20
2022-08-29T10:30:10.225Z,14.70
2022-08-29T10:33:01.255Z,11.98
2022-08-29T10:35:35.147Z,13.00
2022-08-29T10:38:13.669Z,15.02
2022-08-29T10:40:47.548Z,20.65
2022-08-29T10:43:43.383Z,18.65
2022-08-29T10:46:24.842Z,16.52
2022-08-29T10:49:03.504Z,11.25
2022-08-29T10:51:38.139Z,17.25
2022-08-29T10:54:18.392Z,11.95
2022-08-29T10:56:49.641Z,18.42
2022-08-29T10:59:30.302Z,12.60
2022-08-29T11:02:03.353Z,13.48
2022-08-29T11:04:38.350Z,14.55
2022-08-29T11:07:12.973Z,15.43
2022-08-29T11:09:45.217Z,15.40
2022-08-29T11:12:18.979Z,15.23
2022-08-29T11:14:54.428Z,12.70
2022-08-29T11:17:26.135Z,17.55
2022-08-29T11:20:09.685Z,14.18
2022-08-29T11:22:43.180Z,18.58
2022-08-29T11:25:14.535Z,11.48
2022-08-29T11:27:54.747Z,14.27
2022-08-29T11:30:30.687Z,13.05
2022-08-29T11:33:08.511Z,12.60
2022-08-29T11:35:47.185Z,10.93
2022-08-29T11:38:59.289Z,12.25
2022-08-29T11:41:30.992Z,12.85
2022-08-29T11:44:11.501Z,10.75
2022-08-29T11:46:49.011Z,15.93
2022-08-29T11:49:37.344Z,11.98
2022-08-29T11:52:27.349Z,12.10
2022-08-29T11:55:22.690Z,15.70
2022-08-29T11:58:01.730Z,21.10
2022-08-29T12:00:48.596Z,16.85
2022-08-29T12:03:53.819Z,15.23
2022-08-29T12:06:51.706Z,15.45
2022-08-29T12:09:47.748Z,10.20
2022-08-29T12:12:38.307Z,17.10
2022-08-29T12:15:48.959Z,16.73
2022-08-29T12:18:36.931Z,14.60
2022-08-29T12:21:46.126Z,18.05
2022-08-29T12:24:55.168Z,15.10
2022-08-29T12:27:59.718Z,19.65
2022-08-29T12:30:28.515Z,35.03
2022-08-29T12:33:09.132Z,16.48
2022-08-29T12:36:08.259Z,17.25
2022-08-29T12:38:44.790Z,15.27
2022-08-29T12:41:34.025Z,21.75
2022-08-29T12:44:05.961Z,18.33
2022-08-29T12:46:36.809Z,19.30
2022-08-29T12:49:16.059Z,17.55
2022-08-29T12:51:44.811Z,12.63
2022-08-29T12:54:13.954Z,18.02
2022-08-29T12:56:49.996Z,18.30
2022-08-29T12:59:20.364Z,17.90
2022-08-29T13:01:52.272Z,18.30
2022-08-29T13:04:32.001Z,18.65
2022-08-29T13:07:03.196Z,14.32
2022-08-29T13:09:34.161Z,16.85
2022-08-29T13:12:13.529Z,25.70
2022-08-29T13:15:04.071Z,20.83
2022-08-29T13:17:35.525Z,17.75
2022-08-29T13:20:42.831Z,14.88
2022-08-29T13:23:17.158Z,17.65
2022-08-29T13:25:49.760Z,15.15
2022-08-29T13:28:25.324Z,20.58
2022-08-29T13:31:30.499Z,17.33
2022-08-29T13:34:12.948Z,19.90
2022-08-29T13:36:46.226Z,16.48
2022-08-29T13:39:29.183Z,21.08
2022-08-29T13:42:21.444Z,21.88
2022-08-29T13:45:13.110Z,19.95
2022-08-29T13:47:49.697Z,17.83
2022-08-29T13:50:17.865Z,20.88
2022-08-29T13:52:46.027Z,20.05
2022-08-29T13:55:14.298Z,20.08
2022-08-29T13:57:42.876Z,19.77
2022-08-29T14:00:13.940Z,18.67
2022-08-29T14:02:45.123Z,14.55
2022-08-29T14:05:15.006Z,20.80
2022-08-29T14:07:45.670Z,21.38
2022-08-29T14:10:17.608Z,21.77
2022-08-29T14:12:47.572Z,27.10
2022-08-29T14:15:19.032Z,17.73
2022-08-29T14:17:49.064Z,16.10
2022-08-29T14:20:20.010Z,12.35
2022-08-29T14:22:48.889Z,16.45
2022-08-29T14:25:20.436Z,13.75
2022-08-29T14:27:49.633Z,13.50
2022-08-29T14:30:22.059Z,15.35
2022-08-29T14:32:50.476Z,16.40
2022-08-29T14:35:26.766Z,15.52
2022-08-29T14:38:01.474Z,18.58
2022-08-29T14:40:30.731Z,10.68
2022-08-29T14:42:59.414Z,17.08
2022-08-29T14:45:30.261Z,14.35
2022-08-29T14:47:59.042Z,15.43
2022-08-29T14:50:29.758Z,14.75
2022-08-29T14:52:57.892Z,17.55
2022-08-29T14:55:26.415Z,12.32
2022-08-29T14:57:54.789Z,15.77
2022-08-29T15:00:25.865Z,11.13
2022-08-29T15:02:56.985Z,15.27
2022-08-29T15:05:26.083Z,14.38
2022-08-29T15:07:54.619Z,14.88
2022-08-29T15:10:25.177Z,12.40
2022-08-29T15:12:54.876Z,13.52
2022-08-29T15:15:29.535Z,12.20
2022-08-29T15:18:00.740Z,15.43
2022-08-29T15:20:38.735Z,17.25
2022-08-29T15:23:08.203Z,14.43
2022-08-29T15:25:36.516Z,8.63
2022-08-29T15:28:06.904Z,11.63
2022-08-29T15:30:35.563Z,17.88
2022-08-29T15:33:05.415Z,11.40
2022-08-29T15:35:34.347Z,11.73
2022-08-29T15:38:02.675Z,14.80
2022-08-29T15:40:31.362Z,13.57
2022-08-29T15:42:59.703Z,13.50
2022-08-29T15:45:27.906Z,12.55
2022-08-29T15:47:59.009Z,18.13
2022-08-29T15:50:47.109Z,18.60
2022-08-29T15:53:15.676Z,17.17
2022-08-29T15:55:44.588Z,14.98
2022-08-29T15:58:12.886Z,8.40
2022-08-29T16:00:41.214Z,14.07
2022-08-29T16:03:09.755Z,33.65
2022-08-29T16:05:41.106Z,18.77
2022-08-29T16:08:10.773Z,10.25
2022-08-29T16:10:45.387Z,24.85
2022-08-29T16:13:14.512Z,16.77
2022-08-29T16:15:42.953Z,12.30
2022-08-29T16:18:11.529Z,14.60
2022-08-29T16:20:41.692Z,12.38
2022-08-29T16:23:10.118Z,12.90
2022-08-29T16:25:39.264Z,15.35
2022-08-29T16:28:07.732Z,18.10
2022-08-29T16:30:44.232Z,14.43
2022-08-29T16:33:14.159Z,10.73
2022-08-29T16:35:43.876Z,14.20
2022-08-29T16:38:12.530Z,12.52
2022-08-29T16:40:41.024Z,16.65
2022-08-29T16:43:09.752Z,11.32
2022-08-29T16:45:38.275Z,17.40
2022-08-29T16:48:17.667Z,13.35
2022-08-29T16:50:48.026Z,11.35
2022-08-29T16:53:16.314Z,13.65
2022-08-29T16:55:44.477Z,14.82
2022-08-29T16:58:30.155Z,10.68
2022-08-29T17:00:58.890Z,10.27
2022-08-29T17:03:27.293Z,12.50
2022-08-29T17:05:56.933Z,11.18
2022-08-29T17:08:23.993Z,8.90
2022-08-29T17:10:50.977Z,9.93
2022-08-29T17:13:18.150Z,10.98
2022-08-29T17:15:45.129Z,11.85
2022-08-29T17:18:13.345Z,12.75
2022-08-29T17:20:44.014Z,10.63
2022-08-29T17:23:16.402Z,14.88
2022-08-29T17:25:44.846Z,11.02
2022-08-29T17:28:18.109Z,12.27
2022-08-29T17:30:48.082Z,13.35
2022-08-29T17:33:17.005Z,16.88
2022-08-29T17:35:45.667Z,11.80
2022-08-29T17:38:16.118Z,14.82
2022-08-29T17:40:44.765Z,14.48
2022-08-29T17:43:15.031Z,13.50
2022-08-29T17:45:43.334Z,9.68
2022-08-29T17:48:11.840Z,9.70
2022-08-29T17:50:41.533Z,13.63
2022-08-29T17:53:09.673Z,8.20
2022-08-29T17:55:43.008Z,8.50
2022-08-29T17:58:11.629Z,11.77
2022-08-29T18:00:40.021Z,9.48
2022-08-29T18:03:08.262Z,7.53
2022-08-29T18:05:36.634Z,9.00
2022-08-29T18:08:05.318Z,14.25
2022-08-29T18:10:33.813Z,11.88
2022-08-29T18:13:04.012Z,12.68
2022-08-29T18:15:35.550Z,6.97
2022-08-29T18:18:04.151Z,9.20
2022-08-29T18:20:33.802Z,8.52
2022-08-29T18:23:02.006Z,10.23
2022-08-29T18:25:30.362Z,11.18
2022-08-29T18:28:00.224Z,8.68
2022-08-29T18:30:29.980Z,6.88
2022-08-29T18:32:58.535Z,13.25
2022-08-29T18:35:27.498Z,8.82
2022-08-29T18:37:55.879Z,10.35
2022-08-29T18:40:25.550Z,12.13
2022-08-29T18:42:54.817Z,11.85
2022-08-29T18:45:23.148Z,12.77
2022-08-29T18:47:52.849Z,7.85
2022-08-29T18:50:36.707Z,11.23
2022-08-29T18:53:11.966Z,10.18
2022-08-29T18:55:45.000Z,11.07
2022-08-29T18:58:17.995Z,11.98
2022-08-29T19:00:46.326Z,7.95
2022-08-29T19:03:16.093Z,12.57
2022-08-29T19:05:49.572Z,12.75
2022-08-29T19:08:18.241Z,9.90
2022-08-29T19:10:48.567Z,13.02
2022-08-29T19:13:18.759Z,10.73
2022-08-29T19:15:48.699Z,10.73
2022-08-29T19:18:18.951Z,9.68
2022-08-29T19:21:06.591Z,11.90
2022-08-29T19:23:37.575Z,11.07
2022-08-29T19:26:08.226Z,13.07
2022-08-29T19:28:36.718Z,8.63
2022-08-29T19:31:06.773Z,10.85
2022-08-29T19:33:38.377Z,9.02
2022-08-29T19:36:09.792Z,13.13
2022-08-29T19:38:38.008Z,11.38
2022-08-29T19:41:06.360Z,14.52
2022-08-29T19:43:36.010Z,12.23
2022-08-29T19:46:10.485Z,11.50
2022-08-29T19:48:44.265Z,11.63
2022-08-29T19:51:18.522Z,12.10
2022-08-29T19:53:47.668Z,8.73
2022-08-29T19:56:15.895Z,10.20
2022-08-29T19:58:44.246Z,9.65
2022-08-29T20:01:12.552Z,9.23
2022-08-29T20:03:42.466Z,13.02
2022-08-29T20:06:12.358Z,9.60
2022-08-29T20:08:42.759Z,12.75
2022-08-29T20:11:12.907Z,9.57
2022-08-29T20:13:41.137Z,11.02
2022-08-29T20:16:12.133Z,10.65
2022-08-29T20:18:41.217Z,9.88
2022-08-29T20:21:09.891Z,10.40
2022-08-29T20:26:28.226Z,10.00
2022-08-29T20:28:58.438Z,8.40
2022-08-29T20:31:26.705Z,10.32
2022-08-29T20:33:55.473Z,11.07
2022-08-29T20:36:42.289Z,12.60
2022-08-29T20:39:15.297Z,11.13
2022-08-29T20:41:49.359Z,8.43
2022-08-29T20:44:20.409Z,9.43
2022-08-29T20:46:49.448Z,10.93
2022-08-29T20:49:22.773Z,10.75
2022-08-29T20:51:52.148Z,8.32
2022-08-29T20:54:25.078Z,8.85
2022-08-29T20:56:55.104Z,8.70
2022-08-29T20:59:26.454Z,11.70
2022-08-29T21:01:55.555Z,14.05
2022-08-29T21:04:41.225Z,9.13
2022-08-29T21:07:12.178Z,10.13
2022-08-29T21:09:44.413Z,10.77
2022-08-29T21:12:15.168Z,9.38
2022-08-29T21:14:43.495Z,11.02
2022-08-29T21:17:13.559Z,8.40
2022-08-29T21:19:42.223Z,10.43
2022-08-29T21:22:12.890Z,10.60
2022-08-29T21:24:43.216Z,10.65
2022-08-29T21:27:11.577Z,12.82
2022-08-29T21:29:40.537Z,10.18
2022-08-29T21:32:08.739Z,11.80
2022-08-29T21:34:36.878Z,8.52
2022-08-29T21:37:05.659Z,11.82
2022-08-29T21:39:33.966Z,11.60
2022-08-29T21:42:03.415Z,12.00
2022-08-29T21:44:32.431Z,13.25
2022-08-29T21:47:01.121Z,7.53
2022-08-29T21:49:30.533Z,11.35
2022-08-29T21:51:58.657Z,10.75
2022-08-29T21:54:27.215Z,13.93
2022-08-29T21:56:55.334Z,11.65
2022-08-29T21:59:25.505Z,12.25
2022-08-29T22:01:54.944Z,11.05
2022-08-29T22:04:28.595Z,10.88
2022-08-29T22:06:58.318Z,12.38
2022-08-29T22:09:27.897Z,12.10
2022-08-29T22:11:56.264Z,10.40
2022-08-29T22:14:47.017Z,15.27
2022-08-29T22:17:15.744Z,13.13
2022-08-29T22:19:43.871Z,10.07
2022-08-29T22:22:12.536Z,13.50
2022-08-29T22:24:40.777Z,11.38
2022-08-29T22:27:08.979Z,11.18
2022-08-29T22:29:38.694Z,15.52
2022-08-29T22:32:07.080Z,13.15
2022-08-29T22:34:35.598Z,11.93
2022-08-29T22:37:03.961Z,13.25
2022-08-29T22:39:32.413Z,12.05
2022-08-29T22:42:00.483Z,11.02
2022-08-29T22:47:20.018Z,12.02
2022-08-29T22:49:48.137Z,11.43
2022-08-29T22:52:16.218Z,11.65
2022-08-29T22:54:44.376Z,13.30
2022-08-29T22:57:19.223Z,13.68
2022-08-29T22:59:49.822Z,14.18
2022-08-29T23:02:21.119Z,9.43
2022-08-29T23:04:50.618Z,9.63
2022-08-29T23:07:19.360Z,8.73
2022-08-29T23:09:47.850Z,10.57
2022-08-29T23:12:16.494Z,11.13
2022-08-29T23:14:47.426Z,12.35
2022-08-29T23:17:17.281Z,10.45
2022-08-29T23:19:46.898Z,10.80
2022-08-29T23:22:18.333Z,13.55
2022-08-29T23:24:53.769Z,10.18
2022-08-29T23:27:27.647Z,10.63
2022-08-29T23:29:56.081Z,12.13
2022-08-29T23:32:24.292Z,12.38
2022-08-29T23:34:53.803Z,11.00
2022-08-29T23:37:21.974Z,14.57
2022-08-29T23:39:50.921Z,13.15
2022-08-29T23:42:19.085Z,15.05
2022-08-29T23:44:48.523Z,12.52
2022-08-29T23:47:17.180Z,10.07
2022-08-29T23:49:45.694Z,11.32
2022-08-29T23:52:15.411Z,14.13
2022-08-29T23:54:43.538Z,13.52
2022-08-29T23:57:12.093Z,12.65
2022-08-29T23:59:57.656Z,15.27
